Terminal Aerodrome Forecast
Issued by NWS Sioux Falls, SD

Home | Current Version | Previous Version | Text Only | Print | Product List | Glossary On
Versions: 1 2 3 4 5 6 7 8 9 10 11 12 13 14 15 16 17
000
FTUS43 KFSD 302320
TAFFSD
TAF
KFSD 302320Z 3100/3124 15004KT P6SM SKC
     FM310400 13007KT P6SM SKC
     FM310900 16012KT P6SM SCT120
     FM312000 21009KT P6SM VCTS BKN030CB BKN120=

USA.gov is the U.S. government's official web portal to all federal, state and local government web resources and services.